createdAt,value
2022-11-20T00:00:11.635Z,100423.06
2022-11-20T00:03:14.240Z,100432.88
2022-11-20T00:06:18.470Z,100433.88
2022-11-20T00:09:22.641Z,100434.72
2022-11-20T00:12:25.305Z,100423.81
2022-11-20T00:15:27.744Z,100438.59
2022-11-20T00:18:30.300Z,100445.72
2022-11-20T00:21:34.220Z,100434.34
2022-11-20T00:24:42.883Z,100423.84
2022-11-20T00:27:45.712Z,100412.34
2022-11-20T00:30:48.137Z,100412.88
2022-11-20T00:33:50.949Z,100405.31
2022-11-20T00:36:53.436Z,100401.47
2022-11-20T00:39:57.394Z,100385.09
2022-11-20T00:42:59.824Z,100403.34
2022-11-20T00:46:04.187Z,100404.03
2022-11-20T00:49:06.630Z,100384.44
2022-11-20T00:52:27.626Z,100379.41
2022-11-20T00:55:31.367Z,100395.31
2022-11-20T00:58:35.926Z,100389.88
2022-11-20T01:01:38.901Z,100381.44
2022-11-20T01:04:41.719Z,100376.84
2022-11-20T01:07:44.158Z,100375.16
2022-11-20T01:10:48.020Z,100357.53
2022-11-20T01:13:52.078Z,100350.53
2022-11-20T01:16:54.575Z,100361.88
2022-11-20T01:19:56.970Z,100363.16
2022-11-20T01:22:59.360Z,100358.56
2022-11-20T01:26:05.556Z,100353.59
2022-11-20T01:29:11.633Z,100366.56
2022-11-20T01:32:14.051Z,100368.00
2022-11-20T01:35:16.561Z,100370.16
2022-11-20T01:38:21.039Z,100364.56
2022-11-20T01:41:48.475Z,100362.50
2022-11-20T01:44:55.384Z,100346.53
2022-11-20T01:47:57.943Z,100332.00
2022-11-20T01:51:02.478Z,100324.41
2022-11-20T01:54:09.685Z,100329.63
2022-11-20T01:57:15.032Z,100332.31
2022-11-20T02:00:20.047Z,100335.81
2022-11-20T02:03:22.661Z,100340.28
2022-11-20T02:06:28.492Z,100333.06
2022-11-20T02:09:30.978Z,100331.88
2022-11-20T02:12:53.710Z,100317.94
2022-11-20T02:15:56.450Z,100308.13
2022-11-20T02:19:01.447Z,100295.63
2022-11-20T02:22:11.216Z,100298.81
2022-11-20T02:25:16.182Z,100296.34
2022-11-20T02:28:19.292Z,100296.38
2022-11-20T02:31:21.768Z,100313.19
2022-11-20T02:34:24.218Z,100329.19
2022-11-20T02:37:33.360Z,100312.63
2022-11-20T02:40:37.391Z,100292.69
2022-11-20T02:43:39.800Z,100296.06
2022-11-20T02:46:42.262Z,100290.34
2022-11-20T02:49:44.726Z,100292.94
2022-11-20T02:52:47.416Z,100279.59
2022-11-20T02:55:51.299Z,100282.44
2022-11-20T02:58:53.836Z,100284.63
2022-11-20T03:01:57.253Z,100280.19
2022-11-20T03:04:59.959Z,100292.56
2022-11-20T03:08:02.370Z,100294.25
2022-11-20T03:11:08.090Z,100296.22
2022-11-20T03:14:10.547Z,100293.41
2022-11-20T03:17:12.954Z,100299.66
2022-11-20T03:20:15.753Z,100297.72
2022-11-20T03:23:18.207Z,100300.97
2022-11-20T03:26:24.128Z,100313.44
2022-11-20T03:29:26.820Z,100308.53
2022-11-20T03:32:29.336Z,100301.25
2022-11-20T03:35:31.778Z,100302.44
2022-11-20T03:38:34.869Z,100312.19
2022-11-20T03:41:40.533Z,100322.53
2022-11-20T03:44:42.931Z,100334.69
2022-11-20T03:47:46.207Z,100350.66
2022-11-20T03:50:48.823Z,100349.50
2022-11-20T03:53:53.283Z,100321.72
2022-11-20T03:56:57.412Z,100312.44
2022-11-20T04:00:00.371Z,100312.44
2022-11-20T04:03:03.761Z,100318.47
2022-11-20T04:06:08.462Z,100329.41
2022-11-20T04:09:11.051Z,100333.97
2022-11-20T04:12:14.815Z,100323.50
2022-11-20T04:15:17.559Z,100328.69
2022-11-20T04:18:19.941Z,100316.31
2022-11-20T04:21:23.373Z,100321.94
2022-11-20T04:24:25.842Z,100319.03
2022-11-20T04:27:29.610Z,100305.25
2022-11-20T04:30:32.111Z,100295.56
2022-11-20T04:33:35.090Z,100299.09
2022-11-20T04:36:37.528Z,100288.16
2022-11-20T04:39:39.972Z,100267.81
2022-11-20T04:42:43.871Z,100264.72
2022-11-20T04:45:51.598Z,100248.78
2022-11-20T04:48:54.343Z,100264.66
2022-11-20T04:51:56.734Z,100266.28
2022-11-20T04:54:59.136Z,100257.56
2022-11-20T04:58:02.979Z,100233.28
2022-11-20T05:01:07.433Z,100233.44
2022-11-20T05:04:09.991Z,100257.47
2022-11-20T05:07:12.421Z,100264.47
2022-11-20T05:10:15.372Z,100265.19
2022-11-20T05:13:19.235Z,100268.06
2022-11-20T05:16:24.066Z,100263.47
2022-11-20T05:19:26.812Z,100257.06
2022-11-20T05:22:29.256Z,100237.72
2022-11-20T05:25:31.665Z,100221.56
2022-11-20T05:28:54.174Z,100221.22
2022-11-20T05:31:56.587Z,100216.03
2022-11-20T05:34:59.035Z,100210.75
2022-11-20T05:38:01.450Z,100213.78
2022-11-20T05:41:05.667Z,100220.72
2022-11-20T05:44:11.389Z,100225.91
2022-11-20T05:47:13.828Z,100238.63
2022-11-20T05:50:16.402Z,100233.00
2022-11-20T05:53:19.175Z,100230.03
2022-11-20T05:56:22.836Z,100236.78
2022-11-20T05:59:26.827Z,100215.56
2022-11-20T06:02:29.281Z,100224.19
2022-11-20T06:05:31.833Z,100221.44
2022-11-20T06:08:34.715Z,100239.47
2022-11-20T06:11:37.285Z,100258.75
2022-11-20T06:14:41.022Z,100258.00
2022-11-20T06:17:43.417Z,100268.44
2022-11-20T06:20:46.166Z,100274.06
2022-11-20T06:23:49.521Z,100286.09
2022-11-20T06:26:52.152Z,100284.09
2022-11-20T06:29:55.979Z,100288.47
2022-11-20T06:32:58.398Z,100293.09
2022-11-20T06:36:07.190Z,100280.19
2022-11-20T06:39:11.749Z,100292.34
2022-11-20T06:42:14.257Z,100289.44
2022-11-20T06:45:18.076Z,100280.38
2022-11-20T06:48:21.118Z,100256.69
2022-11-20T06:51:23.535Z,100248.53
2022-11-20T06:54:26.018Z,100241.28
2022-11-20T06:57:28.438Z,100249.66
2022-11-20T07:00:32.314Z,100256.38
2022-11-20T07:03:34.851Z,100278.19
2022-11-20T07:06:37.387Z,100270.63
2022-11-20T07:09:40.256Z,100285.19
2022-11-20T07:12:42.908Z,100291.00
2022-11-20T07:15:46.696Z,100300.16
2022-11-20T07:18:51.083Z,100293.09
2022-11-20T07:21:53.894Z,100277.03
2022-11-20T07:24:56.516Z,100283.84
2022-11-20T07:27:59.765Z,100296.28
2022-11-20T07:31:05.997Z,100314.22
2022-11-20T07:34:08.726Z,100311.44
2022-11-20T07:37:11.203Z,100310.28
2022-11-20T07:40:13.847Z,100312.41
2022-11-20T07:43:16.346Z,100302.00
2022-11-20T07:46:20.158Z,100313.09
2022-11-20T07:49:22.773Z,100329.25
2022-11-20T07:52:25.451Z,100332.72
2022-11-20T07:55:27.914Z,100326.78
2022-11-20T07:58:31.320Z,100322.28
2022-11-20T08:01:35.484Z,100343.69
2022-11-20T08:04:37.917Z,100345.38
2022-11-20T08:07:41.621Z,100351.88
2022-11-20T08:10:44.070Z,100334.84
2022-11-20T08:14:05.350Z,100345.25
2022-11-20T08:17:09.174Z,100350.31
2022-11-20T08:20:11.863Z,100350.63
2022-11-20T08:23:14.705Z,100336.22
2022-11-20T08:26:17.160Z,100343.28
2022-11-20T08:29:19.974Z,100363.25
2022-11-20T08:32:23.875Z,100375.28
2022-11-20T08:35:26.333Z,100379.97
2022-11-20T08:38:29.256Z,100374.47
2022-11-20T08:41:34.270Z,100383.94
2022-11-20T08:44:36.868Z,100383.03
2022-11-20T08:47:41.043Z,100379.31
2022-11-20T08:50:43.529Z,100377.34
2022-11-20T08:53:46.145Z,100376.72
2022-11-20T08:56:48.698Z,100371.34
2022-11-20T09:00:05.412Z,100344.97
2022-11-20T09:03:10.391Z,100347.50
2022-11-20T09:06:13.292Z,100345.50
2022-11-20T09:09:15.777Z,100350.09
2022-11-20T09:12:18.315Z,100346.56
2022-11-20T09:15:21.064Z,100346.50
2022-11-20T09:18:25.394Z,100362.69
2022-11-20T09:21:27.891Z,100358.66
2022-11-20T09:24:30.897Z,100376.00
2022-11-20T09:27:33.383Z,100379.56
2022-11-20T09:30:36.199Z,100380.41
2022-11-20T09:33:40.037Z,100404.78
2022-11-20T09:36:42.452Z,100402.38
2022-11-20T09:39:44.971Z,100392.34
2022-11-20T09:42:55.242Z,100411.13
2022-11-20T09:46:14.625Z,100420.03
2022-11-20T09:49:32.280Z,100416.72
2022-11-20T09:52:47.287Z,100406.00
2022-11-20T09:55:50.131Z,100387.84
2022-11-20T09:58:55.578Z,100408.41
2022-11-20T10:02:00.220Z,100414.53
2022-11-20T10:05:11.978Z,100400.41
2022-11-20T10:08:21.186Z,100383.97
2022-11-20T10:11:34.223Z,100383.34
2022-11-20T10:14:51.651Z,100368.47
2022-11-20T10:18:18.193Z,100370.97
2022-11-20T10:21:31.499Z,100375.66
2022-11-20T10:24:43.383Z,100373.88
2022-11-20T10:28:18.981Z,100375.31
2022-11-20T10:31:30.342Z,100389.31
2022-11-20T10:34:48.014Z,100388.22
2022-11-20T10:37:57.486Z,100380.31
2022-11-20T10:41:21.426Z,100382.88
2022-11-20T10:44:46.963Z,100364.31
2022-11-20T10:47:49.882Z,100357.28
2022-11-20T10:51:16.896Z,100364.91
2022-11-20T10:54:25.456Z,100376.97
2022-11-20T10:57:47.946Z,100366.75
2022-11-20T11:00:50.508Z,100353.97
2022-11-20T11:03:54.053Z,100342.34
2022-11-20T11:07:02.169Z,100344.06
2022-11-20T11:10:18.881Z,100350.63
2022-11-20T11:13:23.435Z,100354.16
2022-11-20T11:16:28.027Z,100355.44
2022-11-20T11:19:30.512Z,100345.09
2022-11-20T11:22:35.680Z,100360.09
2022-11-20T11:25:40.477Z,100359.34
2022-11-20T11:28:43.026Z,100372.47
2022-11-20T11:31:45.421Z,100395.88
2022-11-20T11:35:00.093Z,100388.81
2022-11-20T11:38:10.682Z,100377.47
2022-11-20T11:41:20.367Z,100380.53
2022-11-20T11:44:46.748Z,100377.22
2022-11-20T11:47:49.757Z,100378.38
2022-11-20T11:50:53.018Z,100371.00
2022-11-20T11:53:59.684Z,100361.38
2022-11-20T11:57:11.672Z,100367.28
2022-11-20T12:00:16.410Z,100371.94
2022-11-20T12:03:22.618Z,100352.28
2022-11-20T12:06:27.420Z,100362.97
2022-11-20T12:09:38.594Z,100378.25
2022-11-20T12:12:47.649Z,100375.09
2022-11-20T12:15:50.566Z,100381.41
2022-11-20T12:18:54.082Z,100372.19
2022-11-20T12:22:06.407Z,100360.47
2022-11-20T12:25:12.906Z,100358.69
2022-11-20T12:28:42.983Z,100375.31
2022-11-20T12:32:03.801Z,100375.88
2022-11-20T12:35:19.276Z,100373.00
2022-11-20T12:38:43.608Z,100370.84
2022-11-20T12:42:22.182Z,100370.25
2022-11-20T12:45:55.466Z,100362.44
2022-11-20T12:49:11.058Z,100354.13
2022-11-20T12:52:35.256Z,100359.47
2022-11-20T12:55:48.185Z,100344.44
2022-11-20T12:59:02.395Z,100344.56
2022-11-20T13:02:25.920Z,100334.41
2022-11-20T13:05:38.111Z,100343.00
2022-11-20T13:08:42.090Z,100341.34
2022-11-20T13:11:48.533Z,100349.63
2022-11-20T13:14:57.154Z,100345.44
2022-11-20T13:18:03.713Z,100351.91
2022-11-20T13:21:15.760Z,100332.31
2022-11-20T13:24:25.001Z,100338.94
2022-11-20T13:27:28.029Z,100333.34
2022-11-20T13:30:31.600Z,100334.97
2022-11-20T13:33:37.669Z,100323.56
2022-11-20T13:36:50.784Z,100327.81
2022-11-20T13:39:53.498Z,100341.78
2022-11-20T13:43:03.299Z,100351.25
2022-11-20T13:46:07.845Z,100358.56
2022-11-20T13:49:19.420Z,100343.75
2022-11-20T13:52:40.437Z,100353.81
2022-11-20T13:55:52.971Z,100368.81
2022-11-20T13:59:05.336Z,100379.16
2022-11-20T14:02:13.971Z,100375.53
2022-11-20T14:05:22.707Z,100376.31
2022-11-20T14:08:32.177Z,100370.69
2022-11-20T14:11:34.941Z,100370.41
2022-11-20T14:14:49.251Z,100366.22
2022-11-20T14:17:51.947Z,100372.69
2022-11-20T14:20:56.139Z,100383.13
2022-11-20T14:24:05.897Z,100384.13
2022-11-20T14:27:14.056Z,100387.03
2022-11-20T14:30:19.351Z,100401.06
2022-11-20T14:33:25.842Z,100405.72
2022-11-20T14:36:29.781Z,100402.53
2022-11-20T14:39:35.221Z,100393.03
2022-11-20T14:42:38.403Z,100386.47
2022-11-20T14:45:41.024Z,100381.59
2022-11-20T14:48:47.120Z,100379.88
2022-11-20T14:52:00.184Z,100380.41
2022-11-20T14:55:02.796Z,100391.38
2022-11-20T14:58:07.457Z,100397.31
2022-11-20T15:01:15.134Z,100399.56
2022-11-20T15:04:17.860Z,100387.38
2022-11-20T15:07:29.900Z,100376.47
2022-11-20T15:10:32.894Z,100391.13
2022-11-20T15:13:38.579Z,100373.28
2022-11-20T15:16:41.301Z,100368.94
2022-11-20T15:19:44.416Z,100376.66
2022-11-20T15:22:48.389Z,100373.94
2022-11-20T15:25:51.271Z,100365.25
2022-11-20T15:28:54.418Z,100350.81
2022-11-20T15:31:57.534Z,100330.34
2022-11-20T15:35:00.140Z,100315.50
2022-11-20T15:38:04.358Z,100318.88
2022-11-20T15:41:08.277Z,100330.63
2022-11-20T15:44:12.209Z,100345.09
2022-11-20T15:47:14.674Z,100351.47
2022-11-20T15:50:18.820Z,100370.41
2022-11-20T15:53:22.858Z,100368.94
2022-11-20T15:56:26.244Z,100374.59
2022-11-20T15:59:29.239Z,100376.44
2022-11-20T16:02:32.582Z,100363.72
2022-11-20T16:05:35.330Z,100351.72
2022-11-20T16:08:39.408Z,100349.44
2022-11-20T16:11:42.071Z,100361.63
2022-11-20T16:15:03.626Z,100354.16
2022-11-20T16:18:09.704Z,100355.09
2022-11-20T16:21:14.232Z,100359.19
2022-11-20T16:24:18.330Z,100358.75
2022-11-20T16:27:22.166Z,100346.81
2022-11-20T16:30:25.035Z,100335.06
2022-11-20T16:33:27.724Z,100336.13
2022-11-20T16:36:30.854Z,100324.63
2022-11-20T16:39:35.219Z,100319.16
2022-11-20T16:42:38.555Z,100308.97
2022-11-20T16:45:42.492Z,100315.66
2022-11-20T16:48:45.213Z,100296.78
2022-11-20T16:51:48.531Z,100300.88
2022-11-20T16:54:52.628Z,100302.09
2022-11-20T16:57:55.396Z,100317.06
2022-11-20T17:01:05.149Z,100319.75
2022-11-20T17:04:07.915Z,100334.47
2022-11-20T17:07:10.906Z,100339.88
2022-11-20T17:10:15.352Z,100350.84
2022-11-20T17:13:17.785Z,100352.81
2022-11-20T17:16:23.314Z,100352.66
2022-11-20T17:19:26.034Z,100369.88
2022-11-20T17:22:28.711Z,100389.50
2022-11-20T17:25:34.669Z,100393.03
2022-11-20T17:28:38.297Z,100390.59
2022-11-20T17:31:42.312Z,100392.44
2022-11-20T17:34:44.975Z,100371.41
2022-11-20T17:37:47.670Z,100372.41
2022-11-20T17:40:51.807Z,100369.81
2022-11-20T17:43:55.506Z,100365.72
2022-11-20T17:46:58.235Z,100358.75
2022-11-20T17:50:01.171Z,100367.63
2022-11-20T17:53:04.043Z,100361.72
2022-11-20T17:56:27.317Z,100365.19
2022-11-20T17:59:30.093Z,100361.34
2022-11-20T18:02:32.939Z,100362.69
2022-11-20T18:05:35.759Z,100351.72
2022-11-20T18:08:39.302Z,100354.91
2022-11-20T18:11:44.055Z,100363.47
2022-11-20T18:14:47.390Z,100357.53
2022-11-20T18:17:50.123Z,100353.09
2022-11-20T18:20:53.477Z,100353.28
2022-11-20T18:23:56.781Z,100348.56
2022-11-20T18:27:00.939Z,100350.31
2022-11-20T18:30:04.722Z,100340.84
2022-11-20T18:33:07.819Z,100343.53
2022-11-20T18:36:11.233Z,100347.53
2022-11-20T18:39:14.848Z,100353.97
2022-11-20T18:42:37.803Z,100352.84
2022-11-20T18:45:40.562Z,100351.19
2022-11-20T18:48:43.827Z,100347.59
2022-11-20T18:51:46.485Z,100338.91
2022-11-20T18:54:50.706Z,100340.81
2022-11-20T18:57:55.233Z,100344.13
2022-11-20T19:01:05.079Z,100349.78
2022-11-20T19:04:08.857Z,100351.59
2022-11-20T19:07:14.518Z,100355.78
2022-11-20T19:10:20.089Z,100353.69
2022-11-20T19:13:24.339Z,100347.06
2022-11-20T19:16:29.424Z,100349.09
2022-11-20T19:19:32.050Z,100351.34
2022-11-20T19:22:34.780Z,100349.22
2022-11-20T19:25:38.490Z,100348.13
2022-11-20T19:28:42.578Z,100357.09
2022-11-20T19:31:45.626Z,100359.50
2022-11-20T19:34:49.455Z,100357.66
2022-11-20T19:37:52.294Z,100353.41
2022-11-20T19:40:55.208Z,100349.94
2022-11-20T19:44:00.988Z,100334.50
2022-11-20T19:47:09.027Z,100335.06
2022-11-20T19:50:15.933Z,100341.25
2022-11-20T19:53:19.049Z,100339.00
2022-11-20T19:56:23.775Z,100337.09
2022-11-20T19:59:28.139Z,100344.69
2022-11-20T20:02:31.096Z,100341.59
2022-11-20T20:05:34.360Z,100347.88
2022-11-20T20:08:37.603Z,100362.38
2022-11-20T20:11:40.685Z,100352.88
2022-11-20T20:14:44.472Z,100354.72
2022-11-20T20:17:46.947Z,100360.09
2022-11-20T20:20:49.714Z,100355.63
2022-11-20T20:23:53.616Z,100356.09
2022-11-20T20:26:58.266Z,100349.56
2022-11-20T20:30:02.562Z,100351.00
2022-11-20T20:33:05.310Z,100351.41
2022-11-20T20:36:10.071Z,100336.31
2022-11-20T20:39:12.810Z,100338.91
2022-11-20T20:42:15.808Z,100340.03
2022-11-20T20:45:19.826Z,100332.94
2022-11-20T20:48:24.392Z,100334.19
2022-11-20T20:51:27.414Z,100324.03
2022-11-20T20:54:34.201Z,100327.28
2022-11-20T20:57:37.794Z,100331.13
2022-11-20T21:00:41.813Z,100334.28
2022-11-20T21:03:44.508Z,100339.72
2022-11-20T21:06:47.358Z,100346.63
2022-11-20T21:09:50.376Z,100337.72
2022-11-20T21:12:53.100Z,100342.25
2022-11-20T21:15:57.189Z,100341.56
2022-11-20T21:18:59.666Z,100334.50
2022-11-20T21:22:04.880Z,100333.56
2022-11-20T21:25:07.899Z,100325.59
2022-11-20T21:28:15.481Z,100328.88
2022-11-20T21:31:24.987Z,100310.50
2022-11-20T21:34:27.703Z,100301.19
2022-11-20T21:37:30.104Z,100294.94
2022-11-20T21:40:33.279Z,100292.72
2022-11-20T21:43:37.002Z,100283.19
2022-11-20T21:46:42.747Z,100276.69
2022-11-20T21:49:45.404Z,100280.41
2022-11-20T21:52:47.970Z,100278.16
2022-11-20T21:55:54.722Z,100277.84
2022-11-20T21:58:57.268Z,100284.03
2022-11-20T22:02:01.303Z,100270.22
2022-11-20T22:05:04.148Z,100281.78
2022-11-20T22:08:06.650Z,100278.97
2022-11-20T22:11:11.555Z,100271.84
2022-11-20T22:14:23.674Z,100272.25
2022-11-20T22:17:46.458Z,100266.69
2022-11-20T22:20:48.849Z,100270.28
2022-11-20T22:23:51.538Z,100261.34
2022-11-20T22:26:54.099Z,100246.97
2022-11-20T22:29:56.551Z,100241.31
2022-11-20T22:33:00.350Z,100228.69
2022-11-20T22:36:04.512Z,100227.38
2022-11-20T22:39:07.195Z,100234.88
2022-11-20T22:42:09.620Z,100219.94
2022-11-20T22:45:13.590Z,100207.53
2022-11-20T22:48:17.836Z,100231.97
2022-11-20T22:51:21.608Z,100234.91
2022-11-20T22:54:24.418Z,100230.22
2022-11-20T22:57:27.120Z,100224.50
2022-11-20T23:00:29.704Z,100228.84
2022-11-20T23:03:34.639Z,100227.72
2022-11-20T23:06:37.610Z,100220.91
2022-11-20T23:09:40.115Z,100217.66
2022-11-20T23:12:42.511Z,100219.66
2022-11-20T23:15:44.942Z,100211.56
2022-11-20T23:18:52.955Z,100209.47
2022-11-20T23:21:55.421Z,100212.97
2022-11-20T23:24:57.931Z,100210.94
2022-11-20T23:28:02.664Z,100214.59
2022-11-20T23:31:06.142Z,100214.66
2022-11-20T23:34:10.567Z,100201.00
2022-11-20T23:37:12.984Z,100211.75
2022-11-20T23:40:15.607Z,100186.38
2022-11-20T23:43:20.095Z,100187.44
2022-11-20T23:46:22.567Z,100180.16
2022-11-20T23:49:26.511Z,100171.16
2022-11-20T23:52:28.996Z,100168.50
2022-11-20T23:55:32.218Z,100158.25
2022-11-20T23:58:36.506Z,100163.38
